Time;durP1;ratioP1;P1;durP2;ratioP2;P2;SDS_P1;SDS_P2;PMS_P1;PMS_P2;Temp;Humidity;BMP_temperature;BMP_pressure;BME280_temperature;BME280_humidity;BME280_pressure;Samples;Min_cycle;Max_cycle;Signal;HPM_P1;HPM_P2
2023/12/27 00:03:27;;;;;;;;;;;;;;;5.53;81.06;101290.03;10416040;28;96677;-85
2023/12/27 00:08:31;;;;;;;;;;;;;;;5.50;81.16;101284.81;10392573;28;97090;-84
2023/12/27 00:13:34;;;;;;;;;;;;;;;5.52;81.00;101275.22;10419152;28;97000;-84
2023/12/27 00:18:38;;;;;;;;;;;;;;;5.47;81.77;101266.53;10418405;28;96601;-84
2023/12/27 00:23:42;;;;;;;;;;;;;;;5.44;81.22;101263.94;10418233;28;96673;-85
2023/12/27 00:28:45;;;;;;;;;;;;;;;5.45;81.39;101270.94;10419080;28;97032;-84
2023/12/27 00:33:50;;;;;;;;;;;;;;;5.43;81.43;101260.47;10418445;28;97395;-84
2023/12/27 00:38:55;;;;;;;;;;;;;;;5.46;81.02;101256.97;10417994;28;97148;-84
2023/12/27 00:43:59;;;;;;;;;;;;;;;5.45;80.94;101245.66;10416713;28;97156;-84
2023/12/27 00:49:07;;;;;;;;;;;;;;;5.46;80.57;101257.88;10417967;28;96946;-85
2023/12/27 00:54:11;;;;;;;;;;;;;;;5.44;80.59;101243.94;10417869;28;97439;-85
2023/12/27 00:59:18;;;;;;;;;;;;;;;5.43;81.22;101242.19;10417473;28;96700;-83
2023/12/27 01:04:24;;;;;;;;;;;;;;;5.47;81.48;101237.81;10417217;27;96787;-84
2023/12/27 01:09:28;;;;;;;;;;;;;;;5.43;80.63;101257.84;10417018;28;96618;-84
2023/12/27 01:14:32;;;;;;;;;;;;;;;5.37;81.04;101257.88;10416663;28;96667;-86
2023/12/27 01:19:41;;;;;;;;;;;;;;;5.40;80.71;101241.31;10416918;28;96776;-83
2023/12/27 01:24:46;;;;;;;;;;;;;;;5.45;80.66;101242.22;10416612;28;97324;-83
2023/12/27 01:29:51;;;;;;;;;;;;;;;5.46;81.00;101263.09;10416217;28;96674;-85
2023/12/27 01:35:02;;;;;;;;;;;;;;;5.45;80.73;101255.25;10415092;28;97311;-84
2023/12/27 01:40:10;;;;;;;;;;;;;;;5.45;80.94;101269.16;10416253;28;97031;-83
2023/12/27 01:45:14;;;;;;;;;;;;;;;5.41;81.22;101259.63;10415690;28;96682;-85
2023/12/27 01:50:22;;;;;;;;;;;;;;;5.46;81.06;101256.97;10416351;28;97126;-83
2023/12/27 01:55:26;;;;;;;;;;;;;;;5.47;80.78;101258.72;10385301;28;97180;-84
2023/12/27 02:00:30;;;;;;;;;;;;;;;5.46;80.72;101243.94;10383690;27;97182;-84
2023/12/27 02:05:37;;;;;;;;;;;;;;;5.40;81.09;101257.88;10415374;28;96599;-84
2023/12/27 02:10:41;;;;;;;;;;;;;;;5.45;81.42;101245.66;10416698;28;96848;-84
2023/12/27 02:15:48;;;;;;;;;;;;;;;5.40;80.56;101243.94;10429170;27;97321;-84
2023/12/27 02:20:58;;;;;;;;;;;;;;;5.39;81.35;101234.38;10456795;27;97212;-85
2023/12/27 02:26:08;;;;;;;;;;;;;;;5.43;80.86;101233.50;10426502;27;97308;-85
2023/12/27 02:31:12;;;;;;;;;;;;;;;5.40;80.62;101231.75;10414429;28;97188;-84
2023/12/27 02:36:17;;;;;;;;;;;;;;;5.40;80.80;101234.38;10414699;28;96933;-85
2023/12/27 02:41:25;;;;;;;;;;;;;;;5.38;81.08;101227.44;10414306;28;96813;-84
2023/12/27 02:46:33;;;;;;;;;;;;;;;5.38;81.08;101217.00;10413699;28;96843;-83
2023/12/27 02:51:37;;;;;;;;;;;;;;;5.40;81.32;101225.66;10413871;28;96776;-84
2023/12/27 02:56:43;;;;;;;;;;;;;;;5.35;80.92;101217.00;10414024;28;96802;-85
2023/12/27 03:01:47;;;;;;;;;;;;;;;5.34;80.82;101215.28;10414180;28;97259;-85
2023/12/27 03:06:51;;;;;;;;;;;;;;;5.32;81.12;101224.84;10413029;28;97500;-83
2023/12/27 03:11:58;;;;;;;;;;;;;;;5.33;81.51;101216.13;10413743;28;96681;-84
2023/12/27 03:17:02;;;;;;;;;;;;;;;5.31;81.04;101213.53;10411437;28;96783;-85
2023/12/27 03:22:07;;;;;;;;;;;;;;;5.32;80.54;101207.44;10413063;28;96602;-84
2023/12/27 03:27:14;;;;;;;;;;;;;;;5.32;81.46;101185.69;10412607;28;96685;-84
2023/12/27 03:32:17;;;;;;;;;;;;;;;5.31;81.11;101189.19;10412683;28;96726;-85
2023/12/27 03:37:20;;;;;;;;;;;;;;;5.31;80.82;101181.38;10415912;27;96681;-85
2023/12/27 03:42:26;;;;;;;;;;;;;;;5.28;81.15;101179.63;10420288;28;97422;-84
2023/12/27 03:47:31;;;;;;;;;;;;;;;5.26;80.50;101175.28;10419368;28;97854;-84
2023/12/27 03:52:36;;;;;;;;;;;;;;;5.32;80.62;101170.03;10420918;28;96721;-84
2023/12/27 03:57:42;;;;;;;;;;;;;;;5.28;79.88;101153.53;10407884;22;97579;-83
2023/12/27 04:03:01;;;;;;;;;;;;;;;5.27;80.40;101163.97;10394520;28;97420;-85
2023/12/27 04:13:40;;;;;;;;;;;;;;;5.30;80.45;101177.00;10413514;28;97108;-84
2023/12/27 04:18:48;;;;;;;;;;;;;;;5.30;79.85;101174.38;10377735;28;97022;-85
2023/12/27 04:23:55;;;;;;;;;;;;;;;5.34;79.54;101173.50;10377600;28;97359;-84
2023/12/27 04:29:08;;;;;;;;;;;;;;;5.40;79.20;101163.03;10377151;28;96953;-85
2023/12/27 04:34:14;;;;;;;;;;;;;;;5.46;79.08;101165.63;10377014;28;97206;-84
2023/12/27 04:39:20;;;;;;;;;;;;;;;5.44;79.88;101167.38;10377264;28;96650;-84
2023/12/27 04:44:26;;;;;;;;;;;;;;;5.44;79.26;101163.03;10377199;28;96690;-85
2023/12/27 04:49:30;;;;;;;;;;;;;;;5.43;79.49;101147.38;10375871;27;96746;-85
2023/12/27 04:55:04;;;;;;;;;;;;;;;5.50;78.81;101156.94;10417656;28;96700;-85
2023/12/27 05:00:18;;;;;;;;;;;;;;;5.51;78.83;101149.09;10380540;28;97659;-85
2023/12/27 05:05:26;;;;;;;;;;;;;;;5.52;78.75;101142.09;10375235;28;97751;-84
2023/12/27 05:10:31;;;;;;;;;;;;;;;5.51;79.02;101145.59;10375555;28;97251;-84
2023/12/27 05:15:50;;;;;;;;;;;;;;;5.48;79.64;101129.97;10386612;28;96763;-85
2023/12/27 05:20:54;;;;;;;;;;;;;;;5.47;78.75;101130.81;10416965;28;97340;-84
2023/12/27 05:25:59;;;;;;;;;;;;;;;5.45;78.79;101128.22;10416772;28;96668;-84
2023/12/27 05:31:17;;;;;;;;;;;;;;;5.42;78.81;101138.69;10405584;28;97065;-82
2023/12/27 05:36:30;;;;;;;;;;;;;;;5.45;78.73;101143.88;10375807;28;97094;-84
2023/12/27 05:41:37;;;;;;;;;;;;;;;5.40;79.50;101132.59;10374922;28;96648;-83
2023/12/27 05:46:46;;;;;;;;;;;;;;;5.47;79.35;101155.19;10374516;28;97162;-85
2023/12/27 05:51:53;;;;;;;;;;;;;;;5.46;79.21;101163.91;10373343;28;96755;-84
2023/12/27 05:57:00;;;;;;;;;;;;;;;5.50;79.23;101160.38;10374106;28;97281;-85
2023/12/27 06:02:12;;;;;;;;;;;;;;;5.47;79.29;101154.31;10373089;28;96739;-85
2023/12/27 06:07:35;;;;;;;;;;;;;;;5.47;79.87;101162.13;10403780;28;96582;-85
2023/12/27 06:12:51;;;;;;;;;;;;;;;5.44;79.55;101168.25;10415296;28;96630;-84
2023/12/27 06:17:58;;;;;;;;;;;;;;;5.50;79.44;101167.38;10413719;28;96872;-84
2023/12/27 06:23:19;;;;;;;;;;;;;;;5.52;79.80;101176.91;10412154;28;96789;-85
2023/12/27 06:28:32;;;;;;;;;;;;;;;5.52;79.42;101186.47;10415333;28;97272;-84
2023/12/27 06:33:42;;;;;;;;;;;;;;;5.53;79.54;101172.56;10414680;28;96593;-84
2023/12/27 06:38:48;;;;;;;;;;;;;;;5.50;79.89;101201.31;10414183;28;96697;-85
2023/12/27 06:44:08;;;;;;;;;;;;;;;5.48;80.64;101188.22;10413777;28;97009;-85
2023/12/27 06:49:18;;;;;;;;;;;;;;;5.49;79.90;101191.72;10401307;28;96807;-84
2023/12/27 06:54:28;;;;;;;;;;;;;;;5.52;79.78;101187.34;10455037;27;97352;-84
2023/12/27 06:59:50;;;;;;;;;;;;;;;5.56;80.01;101193.41;10372512;28;97176;-84
2023/12/27 07:05:02;;;;;;;;;;;;;;;5.52;80.00;101195.19;10372005;28;96549;-85
2023/12/27 07:10:08;;;;;;;;;;;;;;;5.57;80.15;101197.78;10371289;28;98055;-84
2023/12/27 07:15:20;;;;;;;;;;;;;;;5.56;80.21;101183.84;10372192;28;96763;-85
2023/12/27 07:20:40;;;;;;;;;;;;;;;5.54;79.89;101175.16;10372380;28;96710;-85
2023/12/27 07:26:04;;;;;;;;;;;;;;;;;;;;;
2023/12/27 07:31:18;;;;;;;;;;;;;;;5.53;80.36;101176.06;10371804;28;97322;-83
2023/12/27 07:36:28;;;;;;;;;;;;;;;5.56;80.08;101182.97;10370259;28;97338;-86
2023/12/27 07:41:53;;;;;;;;;;;;;;;5.54;80.41;101190.81;10371275;28;97231;-84
2023/12/27 07:47:18;;;;;;;;;;;;;;;5.56;79.95;101185.59;10396940;27;96753;-84
2023/12/27 07:52:33;;;;;;;;;;;;;;;5.59;79.86;101177.75;10370653;28;96697;-84
2023/12/27 07:57:49;;;;;;;;;;;;;;;5.58;79.88;101174.28;10370155;28;97042;-85
2023/12/27 08:03:20;;;;;;;;;;;;;;;5.58;80.41;101187.34;10372261;28;96677;-84
2023/12/27 08:08:42;;;;;;;;;;;;;;;5.65;80.11;101186.44;10411537;28;96693;-86
2023/12/27 08:13:52;;;;;;;;;;;;;;;5.63;80.22;101185.56;10412859;28;96716;-85
2023/12/27 08:19:12;;;;;;;;;;;;;;;5.65;80.71;101196.00;10400016;28;98173;-85
2023/12/27 08:24:23;;;;;;;;;;;;;;;5.64;79.98;101194.28;10377977;28;96797;-84
2023/12/27 08:29:31;;;;;;;;;;;;;;;5.63;80.72;101190.78;10375880;28;96647;-84
2023/12/27 08:34:57;;;;;;;;;;;;;;;5.65;80.94;101206.44;10376750;28;96571;-86
2023/12/27 08:40:07;;;;;;;;;;;;;;;5.70;80.65;101207.28;10337835;28;97379;-84
2023/12/27 08:45:13;;;;;;;;;;;;;;;5.78;80.25;101213.31;10432695;27;96635;-84
2023/12/27 08:50:30;;;;;;;;;;;;;;;5.76;80.61;101212.50;10413674;27;96641;-85
2023/12/27 08:55:41;;;;;;;;;;;;;;;5.82;80.01;101216.78;10390702;28;97124;-84
2023/12/27 09:00:58;;;;;;;;;;;;;;;5.79;80.32;101208.97;10417704;28;96629;-84
2023/12/27 09:06:10;;;;;;;;;;;;;;;5.80;80.44;101226.41;10418611;28;96763;-86
2023/12/27 09:11:31;;;;;;;;;;;;;;;5.83;80.90;101229.84;10416313;28;97742;-85
2023/12/27 09:16:56;;;;;;;;;;;;;;;5.85;80.44;101237.69;10417128;28;97366;-83
2023/12/27 09:22:06;;;;;;;;;;;;;;;5.87;80.09;101243.75;10415308;28;96693;-85
2023/12/27 09:27:17;;;;;;;;;;;;;;;5.88;80.59;101256.84;10416164;28;96715;-86
2023/12/27 09:32:33;;;;;;;;;;;;;;;5.90;80.55;101264.66;10415632;27;96849;-86
2023/12/27 09:37:59;;;;;;;;;;;;;;;6.05;79.52;101265.44;10416683;28;97112;-86
2023/12/27 09:43:18;;;;;;;;;;;;;;;6.17;79.77;101252.31;10416493;28;97279;-86
2023/12/27 09:48:25;;;;;;;;;;;;;;;6.13;79.36;101265.38;10385430;28;97233;-86
2023/12/27 09:53:44;;;;;;;;;;;;;;;6.15;79.34;101259.28;10374495;28;96638;-85
2023/12/27 09:59:16;;;;;;;;;;;;;;;6.42;78.87;101277.41;10373861;28;96892;-84
2023/12/27 10:04:31;;;;;;;;;;;;;;;6.45;78.44;101292.22;10396051;28;97206;-87
2023/12/27 10:15:23;;;;;;;;;;;;;;;6.36;78.51;101279.19;10409938;28;96987;-86
2023/12/27 10:20:43;;;;;;;;;;;;;;;6.45;78.54;101276.53;10414131;28;96651;-86
2023/12/27 10:25:55;;;;;;;;;;;;;;;6.55;78.09;101275.59;10414535;28;96606;-86
2023/12/27 10:31:02;;;;;;;;;;;;;;;6.73;77.62;101273.69;10414767;28;96693;-86
2023/12/27 10:36:06;;;;;;;;;;;;;;;6.88;76.89;101258.78;10412259;28;96660;-84
2023/12/27 10:41:17;;;;;;;;;;;;;;;6.78;76.59;101266.66;10395838;27;96557;-84
2023/12/27 10:46:24;;;;;;;;;;;;;;;6.84;76.89;101265.78;10426461;27;96890;-85
2023/12/27 10:51:37;;;;;;;;;;;;;;;6.88;76.47;101245.69;10414588;28;97379;-86
2023/12/27 10:56:42;;;;;;;;;;;;;;;6.89;76.63;101230.00;10380972;28;96735;-84
2023/12/27 11:01:50;;;;;;;;;;;;;;;6.98;76.10;101235.16;10372913;28;96906;-85
2023/12/27 11:07:04;;;;;;;;;;;;;;;7.02;75.91;101226.38;10370777;28;96677;-85
2023/12/27 11:12:10;;;;;;;;;;;;;;;7.18;75.76;101219.25;10372798;28;97379;-86
2023/12/27 11:17:16;;;;;;;;;;;;;;;7.19;75.00;101220.97;10390588;28;96855;-83
2023/12/27 11:22:21;;;;;;;;;;;;;;;7.42;74.96;101221.59;10413707;28;96800;-85
2023/12/27 11:27:25;;;;;;;;;;;;;;;7.39;74.35;101219.88;10412615;28;97346;-85
2023/12/27 11:32:35;;;;;;;;;;;;;;;7.38;74.08;101196.31;10413547;28;97358;-84
2023/12/27 11:37:41;;;;;;;;;;;;;;;7.33;74.48;101195.53;10412750;27;96652;-83
2023/12/27 11:42:47;;;;;;;;;;;;;;;7.46;74.29;101197.13;10438357;27;96671;-85
2023/12/27 11:47:55;;;;;;;;;;;;;;;7.59;74.18;101201.31;10378331;28;96667;-87
2023/12/27 11:53:03;;;;;;;;;;;;;;;7.38;73.90;101193.72;10371059;28;96645;-84
2023/12/27 11:58:29;;;;;;;;;;;;;;;7.60;73.89;101188.19;10372439;28;96626;-83
2023/12/27 12:03:38;;;;;;;;;;;;;;;7.69;73.77;101179.34;10378674;28;96956;-84
2023/12/27 12:08:44;;;;;;;;;;;;;;;7.85;73.43;101189.63;10377778;28;96552;-85
2023/12/27 12:13:50;;;;;;;;;;;;;;;7.95;72.94;101180.72;10378968;28;96731;-85
2023/12/27 12:19:00;;;;;;;;;;;;;;;7.90;73.12;101182.56;10410733;28;96633;-84
2023/12/27 12:24:07;;;;;;;;;;;;;;;7.83;72.96;101190.50;10377591;28;97325;-85
2023/12/27 12:29:14;;;;;;;;;;;;;;;7.90;72.73;101182.56;10376791;28;96714;-86
2023/12/27 12:34:21;;;;;;;;;;;;;;;7.92;72.66;101178.16;10394491;28;97301;-86
2023/12/27 12:39:27;;;;;;;;;;;;;;;7.94;72.61;101175.53;10379002;28;96935;-86
2023/12/27 12:44:32;;;;;;;;;;;;;;;7.92;72.82;101161.56;10376908;28;96912;-85
2023/12/27 12:49:40;;;;;;;;;;;;;;;7.94;73.06;101149.31;10374932;28;96742;-85
2023/12/27 12:54:48;;;;;;;;;;;;;;;7.83;72.88;101152.09;10377166;28;97035;-84
2023/12/27 12:59:52;;;;;;;;;;;;;;;7.90;73.36;101150.25;10375997;28;97053;-86
2023/12/27 13:05:03;;;;;;;;;;;;;;;8.07;73.12;101131.63;10376031;28;96737;-84
2023/12/27 13:10:10;;;;;;;;;;;;;;;7.86;73.92;101132.81;10376028;28;97521;-86
2023/12/27 13:15:19;;;;;;;;;;;;;;;7.77;74.02;101112.03;10402756;28;96630;-84
2023/12/27 13:20:26;;;;;;;;;;;;;;;7.67;74.23;101089.44;10417377;28;97217;-86
2023/12/27 13:25:31;;;;;;;;;;;;;;;7.95;73.52;101122.22;10417269;28;97339;-86
2023/12/27 13:30:35;;;;;;;;;;;;;;;7.72;74.31;101104.19;10380798;27;97116;-87
2023/12/27 13:35:47;;;;;;;;;;;;;;;7.78;74.67;101105.88;10416418;28;97413;-85
2023/12/27 13:40:51;;;;;;;;;;;;;;;7.87;74.17;101100.50;10374256;28;97038;-85
2023/12/27 13:45:55;;;;;;;;;;;;;;;7.91;73.81;101121.38;10375148;28;96749;-86
2023/12/27 13:51:01;;;;;;;;;;;;;;;7.92;74.18;101115.28;10374496;28;97025;-85
2023/12/27 13:56:08;;;;;;;;;;;;;;;7.89;74.03;101106.59;10374080;28;97318;-84
2023/12/27 14:01:13;;;;;;;;;;;;;;;7.78;74.68;101080.56;10386197;28;97102;-86
2023/12/27 14:06:21;;;;;;;;;;;;;;;7.78;74.46;101090.16;10415668;28;96633;-86
2023/12/27 14:11:27;;;;;;;;;;;;;;;7.76;75.01;101076.22;10415228;28;96769;-85
2023/12/27 14:16:32;;;;;;;;;;;;;;;7.84;75.08;101104.03;10415998;28;96699;-84
2023/12/27 14:21:42;;;;;;;;;;;;;;;7.75;75.10;101109.38;10373631;28;96770;-84
2023/12/27 14:26:47;;;;;;;;;;;;;;;7.92;74.81;101101.28;10373473;28;96618;-83
2023/12/27 14:31:53;;;;;;;;;;;;;;;7.89;75.01;101107.44;10406402;27;96821;-86
2023/12/27 14:37:00;;;;;;;;;;;;;;;7.86;74.86;101099.63;10398511;28;96875;-84
2023/12/27 14:42:05;;;;;;;;;;;;;;;7.82;75.45;101099.72;10415443;28;96902;-85
2023/12/27 14:47:11;;;;;;;;;;;;;;;7.82;75.19;101092.69;10414703;28;96631;-86
2023/12/27 14:52:19;;;;;;;;;;;;;;;7.79;75.42;101102.34;10401918;28;96748;-86
2023/12/27 14:57:25;;;;;;;;;;;;;;;7.87;75.30;101105.75;10372418;28;97160;-86
2023/12/27 15:02:29;;;;;;;;;;;;;;;7.82;75.16;101103.16;10372863;28;97511;-85
2023/12/27 15:07:39;;;;;;;;;;;;;;;7.80;75.13;101111.97;10373002;28;96749;-85
2023/12/27 15:12:43;;;;;;;;;;;;;;;7.83;75.79;101102.31;10372954;28;96724;-85
2023/12/27 15:17:49;;;;;;;;;;;;;;;7.75;75.40;101093.66;10371980;28;96630;-84
2023/12/27 15:23:00;;;;;;;;;;;;;;;7.81;76.07;101098.84;10371251;28;96842;-85
2023/12/27 15:28:06;;;;;;;;;;;;;;;7.87;75.97;101090.03;10371944;27;97319;-84
2023/12/27 15:33:11;;;;;;;;;;;;;;;7.80;75.74;101085.75;10413974;27;96848;-84
2023/12/27 15:38:20;;;;;;;;;;;;;;;7.81;75.83;101095.34;10427673;28;96875;-84
2023/12/27 15:43:24;;;;;;;;;;;;;;;7.79;76.12;101107.59;10413734;28;97274;-83
2023/12/27 15:48:31;;;;;;;;;;;;;;;7.85;75.85;101110.13;10385184;28;97149;-85
2023/12/27 15:53:37;;;;;;;;;;;;;;;7.83;75.75;101118.03;10385122;28;97162;-85
2023/12/27 15:58:46;;;;;;;;;;;;;;;7.74;76.01;101104.19;10386197;28;97279;-83
2023/12/27 16:03:51;;;;;;;;;;;;;;;7.73;76.05;101112.94;10384631;28;96641;-86
2023/12/27 16:08:58;;;;;;;;;;;;;;;7.72;76.12;101101.59;10401870;28;96657;-84
2023/12/27 16:14:02;;;;;;;;;;;;;;;7.77;76.27;101112.84;10425409;28;96588;-84
2023/12/27 16:19:07;;;;;;;;;;;;;;;7.80;76.34;101112.81;10425963;28;97366;-86
2023/12/27 16:24:20;;;;;;;;;;;;;;;7.77;76.20;101114.63;10400077;28;96920;-84
2023/12/27 16:29:26;;;;;;;;;;;;;;;7.78;76.41;101122.47;10415711;22;98807;-87
2023/12/27 16:34:30;;;;;;;;;;;;;;;7.78;76.34;101117.22;10383574;28;97608;-85
2023/12/27 16:39:37;;;;;;;;;;;;;;;7.80;76.62;101120.66;10383737;28;97328;-85
2023/12/27 16:44:52;;;;;;;;;;;;;;;7.72;76.42;101127.78;10378651;28;96729;-87
2023/12/27 16:49:59;;;;;;;;;;;;;;;7.79;76.39;101121.56;10377468;28;96711;-86
2023/12/27 16:55:07;;;;;;;;;;;;;;;7.73;76.80;101126.91;10376960;28;96648;-83
2023/12/27 17:00:13;;;;;;;;;;;;;;;7.71;76.59;101118.22;10376498;28;96607;-85
2023/12/27 17:05:19;;;;;;;;;;;;;;;7.75;76.49;101116.41;10375459;28;96628;-85
2023/12/27 17:10:24;;;;;;;;;;;;;;;7.66;76.99;101121.78;10376045;28;96979;-81
2023/12/27 17:15:28;;;;;;;;;;;;;;;7.66;77.27;101116.53;10375909;28;96623;-84
2023/12/27 17:20:31;;;;;;;;;;;;;;;7.63;77.42;101125.28;10383209;28;98161;-86
2023/12/27 17:25:40;;;;;;;;;;;;;;;7.67;77.39;101126.97;10401074;28;97402;-84
2023/12/27 17:30:46;;;;;;;;;;;;;;;7.63;77.01;101133.13;10375147;28;96723;-83
2023/12/27 17:35:51;;;;;;;;;;;;;;;7.67;77.24;101158.41;10375017;28;97783;-85
2023/12/27 17:40:58;;;;;;;;;;;;;;;7.71;76.97;101151.38;10375728;28;96807;-84
2023/12/27 17:46:03;;;;;;;;;;;;;;;7.73;77.20;101162.72;10374304;28;96774;-84
2023/12/27 17:51:07;;;;;;;;;;;;;;;7.66;77.44;101171.53;10374500;28;97478;-85
2023/12/27 17:56:14;;;;;;;;;;;;;;;7.65;77.23;101164.53;10372210;28;97414;-84
2023/12/27 18:01:18;;;;;;;;;;;;;;;7.65;77.43;101161.94;10373960;28;96738;-87
2023/12/27 18:06:23;;;;;;;;;;;;;;;7.68;77.36;101168.00;10374141;28;96598;-85
2023/12/27 18:11:36;;;;;;;;;;;;;;;7.61;77.56;101163.75;10374419;28;97348;-86
2023/12/27 18:16:40;;;;;;;;;;;;;;;7.67;78.14;101178.50;10373476;28;96818;-85
2023/12/27 18:21:46;;;;;;;;;;;;;;;7.74;77.48;101172.28;10391681;28;96944;-84
2023/12/27 18:26:52;;;;;;;;;;;;;;;7.76;77.54;101174.03;10415234;28;97527;-86
2023/12/27 18:31:56;;;;;;;;;;;;;;;7.77;77.42;101174.91;10413446;28;96778;-85
2023/12/27 18:37:00;;;;;;;;;;;;;;;7.76;77.46;101188.84;10373320;28;97190;-85
2023/12/27 18:42:08;;;;;;;;;;;;;;;7.74;77.69;101175.78;10373019;28;96608;-86
2023/12/27 18:47:14;;;;;;;;;;;;;;;7.70;77.58;101179.31;10371703;28;96701;-85
2023/12/27 18:52:21;;;;;;;;;;;;;;;7.71;77.69;101183.69;10372262;28;97387;-85
2023/12/27 18:57:28;;;;;;;;;;;;;;;7.73;77.93;101191.53;10372534;28;97445;-85
2023/12/27 19:02:32;;;;;;;;;;;;;;;7.81;77.29;101202.75;10372173;28;97457;-84
2023/12/27 19:07:38;;;;;;;;;;;;;;;7.79;77.16;101226.38;10371194;28;96736;-84
2023/12/27 19:12:45;;;;;;;;;;;;;;;7.87;77.41;101239.38;10371614;28;96537;-84
2023/12/27 19:17:51;;;;;;;;;;;;;;;7.92;77.18;101237.56;10372449;28;97181;-84
2023/12/27 19:22:56;;;;;;;;;;;;;;;7.94;76.96;101249.75;10372429;28;96646;-84
2023/12/27 19:28:03;;;;;;;;;;;;;;;7.92;77.15;101243.69;10371606;28;97293;-85
2023/12/27 19:33:06;;;;;;;;;;;;;;;7.82;77.53;101236.78;10371606;28;97354;-84
2023/12/27 19:38:11;;;;;;;;;;;;;;;7.84;77.76;101229.78;10370190;28;97350;-86
2023/12/27 19:43:20;;;;;;;;;;;;;;;7.75;78.00;101227.28;10371234;28;96977;-84
2023/12/27 19:48:29;;;;;;;;;;;;;;;7.80;77.77;101235.09;10370772;28;96763;-85
2023/12/27 19:53:33;;;;;;;;;;;;;;;7.84;77.61;101247.25;10370941;28;96679;-85
2023/12/27 19:58:44;;;;;;;;;;;;;;;7.77;77.69;101225.50;10371009;28;96655;-85
2023/12/27 20:03:50;;;;;;;;;;;;;;;7.82;77.88;101221.06;10371012;28;97237;-83
2023/12/27 20:08:53;;;;;;;;;;;;;;;7.82;77.32;101230.72;10370225;28;96727;-84
2023/12/27 20:13:57;;;;;;;;;;;;;;;7.85;77.48;101235.91;10372796;28;98572;-83
2023/12/27 20:19:00;;;;;;;;;;;;;;;7.87;77.52;101249.84;10373020;28;97142;-84
2023/12/27 20:24:04;;;;;;;;;;;;;;;7.94;77.18;101256.75;10377533;28;98114;-85
2023/12/27 20:29:10;;;;;;;;;;;;;;;7.93;77.51;101266.38;10375755;28;96772;-85
2023/12/27 20:34:14;;;;;;;;;;;;;;;7.97;77.35;101264.56;10376906;28;96701;-84
2023/12/27 20:39:26;;;;;;;;;;;;;;;7.95;76.99;101255.84;10376946;28;97019;-84
2023/12/27 20:44:38;;;;;;;;;;;;;;;7.93;77.39;101260.25;10376562;28;97225;-84
2023/12/27 20:49:42;;;;;;;;;;;;;;;8.01;77.53;101274.13;10376644;28;96648;-84
2023/12/27 20:54:48;;;;;;;;;;;;;;;7.90;78.87;101269.03;10376372;28;97363;-85
2023/12/27 20:59:56;;;;;;;;;;;;;;;7.89;79.39;101267.28;10376135;28;96638;-84
2023/12/27 21:04:59;;;;;;;;;;;;;;;7.81;80.27;101279.63;10376732;28;97220;-85
2023/12/27 21:10:02;;;;;;;;;;;;;;;7.74;80.87;101279.69;10375276;28;96710;-86
2023/12/27 21:15:11;;;;;;;;;;;;;;;7.77;81.24;101282.31;10375516;28;96993;-85
2023/12/27 21:20:15;;;;;;;;;;;;;;;7.71;81.19;101269.25;10402823;28;96764;-85
2023/12/27 21:25:21;;;;;;;;;;;;;;;7.71;81.42;101266.66;10374878;28;97507;-86
2023/12/27 21:30:32;;;;;;;;;;;;;;;7.66;81.79;101265.84;10375141;28;97404;-86
2023/12/27 21:35:37;;;;;;;;;;;;;;;7.68;81.75;101261.44;10374887;28;96667;-86
2023/12/27 21:40:44;;;;;;;;;;;;;;;7.65;81.99;101256.22;10375531;28;96976;-86
2023/12/27 21:45:51;;;;;;;;;;;;;;;7.63;81.76;101260.63;10374743;28;96679;-84
2023/12/27 21:50:56;;;;;;;;;;;;;;;7.58;82.13;101265.91;10374622;28;96633;-86
2023/12/27 21:56:00;;;;;;;;;;;;;;;7.64;81.76;101255.38;10374847;28;97366;-86
2023/12/27 22:01:08;;;;;;;;;;;;;;;7.69;81.65;101265.78;10374520;28;96813;-85
2023/12/27 22:06:21;;;;;;;;;;;;;;;7.70;81.34;101259.69;10373755;28;96870;-87
2023/12/27 22:11:28;;;;;;;;;;;;;;;7.74;80.90;101275.34;10372791;28;96756;-86
2023/12/27 22:16:33;;;;;;;;;;;;;;;7.77;80.93;101292.78;10373856;28;96987;-85
2023/12/27 22:21:38;;;;;;;;;;;;;;;7.80;80.75;101300.59;10374174;28;96615;-86
2023/12/27 22:26:41;;;;;;;;;;;;;;;7.79;80.68;101301.47;10373061;28;96686;-86
2023/12/27 22:31:45;;;;;;;;;;;;;;;7.81;80.58;101292.72;10373107;28;96679;-86
2023/12/27 22:36:51;;;;;;;;;;;;;;;7.80;80.94;101296.22;10373053;28;96854;-87
2023/12/27 22:41:57;;;;;;;;;;;;;;;7.88;80.63;101288.25;10372203;28;96583;-85
2023/12/27 22:47:06;;;;;;;;;;;;;;;7.85;80.41;101269.97;10373235;28;97106;-85
2023/12/27 22:52:09;;;;;;;;;;;;;;;7.82;80.00;101278.72;10372567;28;96714;-84
2023/12/27 22:57:14;;;;;;;;;;;;;;;7.87;80.27;101284.78;10372501;28;96705;-86
2023/12/27 23:02:21;;;;;;;;;;;;;;;7.87;80.16;101289.16;10371417;28;96997;-86
2023/12/27 23:07:27;;;;;;;;;;;;;;;7.88;79.77;101293.50;10373641;28;97173;-85
2023/12/27 23:12:30;;;;;;;;;;;;;;;7.87;80.15;101291.78;10413620;28;97568;-86
2023/12/27 23:17:35;;;;;;;;;;;;;;;7.88;79.73;101285.66;10405141;28;96764;-84
2023/12/27 23:22:41;;;;;;;;;;;;;;;7.92;79.39;101288.22;10362336;28;96603;-84
2023/12/27 23:27:45;;;;;;;;;;;;;;;7.93;79.27;101274.22;10371066;28;96685;-83
2023/12/27 23:32:53;;;;;;;;;;;;;;;7.92;79.65;101292.59;10371647;28;97252;-87
2023/12/27 23:38:00;;;;;;;;;;;;;;;7.95;79.23;101292.53;10371903;28;96778;-85
2023/12/27 23:43:04;;;;;;;;;;;;;;;7.99;79.43;101300.34;10371546;28;96809;-86
2023/12/27 23:48:11;;;;;;;;;;;;;;;7.98;79.87;101289.88;10371533;28;97066;-85
2023/12/27 23:53:15;;;;;;;;;;;;;;;8.00;79.50;101282.88;10373079;28;97019;-85
2023/12/27 23:58:20;;;;;;;;;;;;;;;7.95;79.23;101284.69;10378372;28;97860;-86
